Wetterdaten: Woche 24.12.12 - 30.12.12 (KW52)
Datum Zeit Temp. Auen Feucht Auen Luftdruck Regen Richtung Windben
24.12.2012 00:00 3,0 C 97 % 1018,0 hPa 0,0 mm W-SW 1,9 km/h (1 Bft)
24.12.2012 01:00 2,3 C 97 % 1018,0 hPa 0,0 mm W 1,2 km/h (1 Bft)
24.12.2012 02:00 1,7 C 97 % 1018,0 hPa 0,0 mm W 3,5 km/h (1 Bft)
24.12.2012 03:00 1,2 C 97 % 1017,7 hPa 0,0 mm W 2,1 km/h (1 Bft)
24.12.2012 04:00 1,0 C 97 % 1017,5 hPa 0,0 mm W-NW 3,2 km/h (1 Bft)
24.12.2012 05:00 0,8 C 98 % 1017,2 hPa 0,0 mm W 3,5 km/h (1 Bft)
24.12.2012 06:00 0,5 C 97 % 1017,2 hPa 0,0 mm W 2,1 km/h (1 Bft)
24.12.2012 07:00 0,3 C 98 % 1017,0 hPa 0,0 mm W 2,8 km/h (1 Bft)
24.12.2012 08:00 0,2 C 98 % 1017,1 hPa 0,0 mm W 2,1 km/h (1 Bft)
24.12.2012 09:00 1,8 C 98 % 1017,2 hPa 0,0 mm W 3,1 km/h (1 Bft)
24.12.2012 10:00 4,9 C 94 % 1017,1 hPa 0,0 mm W 2,8 km/h (1 Bft)
24.12.2012 11:00 6,7 C 87 % 1016,4 hPa 0,0 mm W-NW 0,8 km/h (0 Bft)
24.12.2012 12:00 6,8 C 84 % 1015,6 hPa 0,0 mm W-NW 0,0 km/h (0 Bft)
24.12.2012 13:00 7,6 C 82 % 1014,6 hPa 0,0 mm W-NW 0,1 km/h (0 Bft)
24.12.2012 14:00 7,2 C 83 % 1014,0 hPa 0,0 mm W-NW 0,8 km/h (0 Bft)
24.12.2012 15:00 5,6 C 87 % 1013,8 hPa 0,0 mm W-NW 1,6 km/h (1 Bft)
24.12.2012 16:00 3,8 C 91 % 1013,9 hPa 0,0 mm W 2,7 km/h (1 Bft)
24.12.2012 17:00 2,4 C 93 % 1014,1 hPa 0,0 mm W 2,4 km/h (1 Bft)
24.12.2012 18:00 1,9 C 94 % 1014,2 hPa 0,0 mm W-SW 4,1 km/h (1 Bft)
24.12.2012 19:00 1,5 C 94 % 1014,0 hPa 0,0 mm W 2,0 km/h (1 Bft)
24.12.2012 20:00 1,3 C 94 % 1014,0 hPa 0,0 mm W 3,5 km/h (1 Bft)
24.12.2012 21:00 0,9 C 95 % 1013,8 hPa 0,0 mm W 3,6 km/h (1 Bft)
24.12.2012 22:00 0,8 C 95 % 1013,7 hPa 0,0 mm W-NW 1,6 km/h (1 Bft)
24.12.2012 23:00 0,6 C 95 % 1013,4 hPa 0,0 mm W-SW 1,2 km/h (1 Bft)
25.12.2012 00:00 0,2 C 95 % 1013,0 hPa 0,0 mm W 1,3 km/h (1 Bft)
25.12.2012 01:00 0,1 C 95 % 1012,5 hPa 0,0 mm W 4,0 km/h (1 Bft)
25.12.2012 02:00 -0,3 C 95 % 1012,3 hPa 0,0 mm W 1,5 km/h (1 Bft)
25.12.2012 03:00 -0,4 C 95 % 1011,6 hPa 0,0 mm W 2,3 km/h (1 Bft)
25.12.2012 04:00 -0,1 C 96 % 1010,6 hPa 0,0 mm W 2,1 km/h (1 Bft)
25.12.2012 05:00 -0,2 C 96 % 1010,1 hPa 0,0 mm W 2,7 km/h (1 Bft)
25.12.2012 06:00 -0,1 C 96 % 1009,7 hPa 0,0 mm W 0,3 km/h (0 Bft)
25.12.2012 07:00 0,1 C 96 % 1009,2 hPa 0,0 mm W 0,1 km/h (0 Bft)
25.12.2012 08:00 0,7 C 95 % 1009,5 hPa 0,0 mm W 5,1 km/h (1 Bft)
25.12.2012 09:00 4,2 C 86 % 1011,4 hPa 0,0 mm W 7,9 km/h (2 Bft)
25.12.2012 10:00 4,4 C 87 % 1012,0 hPa 0,0 mm N-NO 1,6 km/h (1 Bft)
25.12.2012 11:00 5,1 C 85 % 1011,7 hPa 0,0 mm W 0,9 km/h (0 Bft)
25.12.2012 12:00 5,8 C 84 % 1011,3 hPa 0,0 mm W 1,7 km/h (1 Bft)
25.12.2012 13:00 6,4 C 83 % 1010,4 hPa 0,0 mm W 1,2 km/h (1 Bft)
25.12.2012 14:00 6,2 C 83 % 1009,7 hPa 0,0 mm W 0,7 km/h (0 Bft)
25.12.2012 15:00 5,1 C 87 % 1009,5 hPa 0,0 mm W 1,3 km/h (1 Bft)
25.12.2012 16:00 3,4 C 90 % 1009,9 hPa 0,0 mm W 3,3 km/h (1 Bft)
25.12.2012 17:00 2,7 C 92 % 1010,1 hPa 0,0 mm W-SW 4,5 km/h (1 Bft)
25.12.2012 18:00 2,2 C 92 % 1010,5 hPa 0,0 mm W 2,7 km/h (1 Bft)
25.12.2012 19:00 2,7 C 92 % 1011,1 hPa 0,0 mm W 5,1 km/h (1 Bft)
25.12.2012 20:00 3,4 C 88 % 1011,9 hPa 0,0 mm O-SO 3,2 km/h (1 Bft)
25.12.2012 21:00 2,5 C 91 % 1012,7 hPa 0,0 mm W 4,9 km/h (1 Bft)
25.12.2012 22:00 2,7 C 91 % 1014,1 hPa 0,0 mm W 6,7 km/h (2 Bft)
25.12.2012 23:00 4,3 C 89 % 1015,6 hPa 0,0 mm W 2,8 km/h (1 Bft)
26.12.2012 00:00 3,8 C 91 % 1015,8 hPa 0,0 mm N-NW 2,0 km/h (1 Bft)
26.12.2012 01:00 3,5 C 92 % 1015,7 hPa 0,0 mm NW 3,1 km/h (1 Bft)
26.12.2012 02:00 3,4 C 94 % 1015,8 hPa 0,0 mm W 2,3 km/h (1 Bft)
26.12.2012 03:00 2,9 C 96 % 1015,8 hPa 0,0 mm W 0,5 km/h (0 Bft)
26.12.2012 04:00 3,1 C 97 % 1015,7 hPa 0,6 mm W 2,4 km/h (1 Bft)
26.12.2012 05:00 3,2 C 97 % 1015,4 hPa 0,0 mm S 1,5 km/h (1 Bft)
26.12.2012 06:00 3,0 C 97 % 1015,7 hPa 0,0 mm W 4,0 km/h (1 Bft)
26.12.2012 07:00 3,3 C 97 % 1015,9 hPa 0,2 mm W 4,4 km/h (1 Bft)
26.12.2012 08:00 3,4 C 97 % 1016,3 hPa 0,2 mm W 1,3 km/h (1 Bft)
26.12.2012 09:00 2,8 C 98 % 1016,7 hPa 0,2 mm W 0,0 km/h (0 Bft)
26.12.2012 10:00 3,6 C 98 % 1017,3 hPa 0,2 mm W 1,5 km/h (1 Bft)
26.12.2012 11:00 3,9 C 98 % 1017,4 hPa 1,2 mm W 3,3 km/h (1 Bft)
26.12.2012 12:00 4,3 C 98 % 1017,1 hPa 0,6 mm W 0,7 km/h (0 Bft)
26.12.2012 13:00 3,7 C 98 % 1016,6 hPa 0,2 mm O-NO 2,0 km/h (1 Bft)
26.12.2012 14:00 3,9 C 98 % 1016,7 hPa 0,0 mm W 1,7 km/h (1 Bft)
26.12.2012 15:00 4,7 C 96 % 1017,3 hPa 0,2 mm W 15,0 km/h (3 Bft)
26.12.2012 16:00 5,2 C 89 % 1017,8 hPa 0,0 mm W 10,2 km/h (2 Bft)
26.12.2012 17:00 4,8 C 90 % 1018,6 hPa 0,0 mm W 2,5 km/h (1 Bft)
26.12.2012 18:00 3,8 C 92 % 1018,9 hPa 0,0 mm W 2,5 km/h (1 Bft)
26.12.2012 19:00 3,0 C 93 % 1019,1 hPa 0,0 mm W 4,0 km/h (1 Bft)
26.12.2012 20:00 2,4 C 93 % 1019,3 hPa 0,0 mm W 2,8 km/h (1 Bft)
26.12.2012 21:00 1,2 C 94 % 1019,4 hPa 0,0 mm NO 0,9 km/h (0 Bft)
26.12.2012 22:00 1,0 C 96 % 1019,3 hPa 0,0 mm NW 1,2 km/h (1 Bft)
26.12.2012 23:00 -0,1 C 96 % 1019,2 hPa 0,0 mm NW 1,2 km/h (1 Bft)
27.12.2012 00:00 -0,8 C 96 % 1018,8 hPa 0,0 mm W 0,9 km/h (0 Bft)
27.12.2012 01:00 -1,3 C 96 % 1018,4 hPa 0,0 mm W 0,0 km/h (0 Bft)
27.12.2012 02:00 -1,6 C 96 % 1018,4 hPa 0,0 mm W-SW 1,6 km/h (1 Bft)
27.12.2012 03:00 -2,0 C 96 % 1017,6 hPa 0,0 mm W 2,4 km/h (1 Bft)
27.12.2012 04:00 -1,9 C 96 % 1017,0 hPa 0,0 mm W 2,1 km/h (1 Bft)
27.12.2012 05:00 -1,0 C 96 % 1016,4 hPa 0,0 mm W-SW 2,9 km/h (1 Bft)
27.12.2012 06:00 -0,4 C 96 % 1015,7 hPa 0,0 mm W 2,5 km/h (1 Bft)
27.12.2012 07:00 0,2 C 96 % 1015,7 hPa 0,0 mm W-SW 3,5 km/h (1 Bft)
27.12.2012 08:00 0,8 C 95 % 1015,5 hPa 0,0 mm W 3,1 km/h (1 Bft)
27.12.2012 09:00 1,4 C 95 % 1015,7 hPa 0,0 mm W-SW 2,5 km/h (1 Bft)
27.12.2012 10:00 2,6 C 93 % 1015,7 hPa 0,0 mm W 3,2 km/h (1 Bft)
27.12.2012 11:00 3,3 C 89 % 1014,3 hPa 0,0 mm O-NO 3,6 km/h (1 Bft)
27.12.2012 12:00 5,8 C 76 % 1013,2 hPa 0,0 mm S 2,5 km/h (1 Bft)
27.12.2012 13:00 6,5 C 75 % 1012,1 hPa 0,0 mm S-SO 0,7 km/h (0 Bft)
27.12.2012 14:00 6,0 C 80 % 1010,8 hPa 0,0 mm SW 0,5 km/h (0 Bft)
27.12.2012 15:00 5,2 C 85 % 1010,2 hPa 0,0 mm W 2,7 km/h (1 Bft)
27.12.2012 16:00 4,6 C 87 % 1010,5 hPa 0,0 mm W 4,1 km/h (1 Bft)
27.12.2012 17:00 3,8 C 90 % 1010,4 hPa 0,0 mm W-SW 4,0 km/h (1 Bft)
27.12.2012 18:00 3,5 C 92 % 1010,6 hPa 0,0 mm N-NO 2,7 km/h (1 Bft)
27.12.2012 19:00 3,0 C 94 % 1010,6 hPa 0,0 mm W 2,1 km/h (1 Bft)
27.12.2012 20:00 2,9 C 94 % 1010,6 hPa 0,0 mm W 4,7 km/h (1 Bft)
27.12.2012 21:00 3,8 C 94 % 1012,3 hPa 1,0 mm W 19,0 km/h (3 Bft)
27.12.2012 22:00 5,8 C 83 % 1014,0 hPa 0,0 mm W 29,9 km/h (5 Bft)
27.12.2012 23:00 5,2 C 83 % 1014,8 hPa 0,0 mm W 8,7 km/h (2 Bft)
28.12.2012 00:00 5,6 C 79 % 1014,9 hPa 0,0 mm W 13,6 km/h (3 Bft)
28.12.2012 01:00 6,2 C 75 % 1014,7 hPa 0,0 mm W 16,5 km/h (3 Bft)
28.12.2012 02:00 6,4 C 75 % 1014,7 hPa 0,0 mm W 20,8 km/h (4 Bft)
28.12.2012 03:00 6,1 C 80 % 1015,4 hPa 0,2 mm W 31,9 km/h (5 Bft)
28.12.2012 04:00 4,6 C 90 % 1017,3 hPa 1,4 mm W 24,8 km/h (4 Bft)
28.12.2012 05:00 3,8 C 92 % 1018,2 hPa 1,0 mm W 25,1 km/h (4 Bft)
28.12.2012 06:00 3,2 C 93 % 1019,6 hPa 1,2 mm W-SW 22,0 km/h (4 Bft)
28.12.2012 07:00 3,3 C 94 % 1021,9 hPa 2,0 mm W 19,7 km/h (3 Bft)
28.12.2012 08:00 3,4 C 94 % 1024,2 hPa 1,4 mm W 14,9 km/h (3 Bft)
28.12.2012 09:00 3,6 C 93 % 1025,9 hPa 0,0 mm W 10,2 km/h (2 Bft)
28.12.2012 10:00 3,8 C 93 % 1027,5 hPa 0,0 mm W 7,6 km/h (2 Bft)
28.12.2012 11:00 4,3 C 92 % 1028,2 hPa 0,0 mm W-NW 4,9 km/h (1 Bft)
28.12.2012 12:00 4,3 C 90 % 1028,7 hPa 0,0 mm W 9,8 km/h (2 Bft)
28.12.2012 13:00 4,3 C 90 % 1029,1 hPa 0,0 mm W 9,8 km/h (2 Bft)
28.12.2012 14:00 3,4 C 92 % 1029,9 hPa 0,0 mm W 8,4 km/h (2 Bft)
28.12.2012 15:00 2,9 C 93 % 1030,9 hPa 0,4 mm W 8,3 km/h (2 Bft)
28.12.2012 16:00 2,0 C 95 % 1031,4 hPa 0,8 mm W 4,9 km/h (1 Bft)
28.12.2012 17:00 2,1 C 95 % 1032,0 hPa 0,2 mm W 0,3 km/h (0 Bft)
28.12.2012 18:00 2,1 C 96 % 1032,6 hPa 0,0 mm W-SW 0,8 km/h (0 Bft)
28.12.2012 19:00 1,7 C 96 % 1032,6 hPa 0,0 mm W-SW 1,3 km/h (1 Bft)
28.12.2012 20:00 1,2 C 97 % 1032,2 hPa 0,0 mm S-SO 1,1 km/h (0 Bft)
28.12.2012 21:00 0,9 C 97 % 1032,0 hPa 0,0 mm S-SW 1,1 km/h (0 Bft)
28.12.2012 22:00 0,7 C 97 % 1031,9 hPa 0,0 mm W-NW 1,5 km/h (1 Bft)
28.12.2012 23:00 0,6 C 97 % 1031,9 hPa 0,0 mm W-NW 0,8 km/h (0 Bft)
Min-Datum _ 27.12.12 27.12.12 25.12.12 - - 24.12.12
_ Min-Zeit 03:30 12:20 07:45 - - 00:00
Minimum _ -2,3 C 72 % 1008,9 hPa - - 0,0 km/h (0 Bft)
Max-Datum _ 24.12.12 24.12.12 28.12.12 28.12.12 - 28.12.12
_ Max-Zeit 13:35 04:40 18:40 07:55 - 03:05
Maximum _ 8,3 C 98 % 1032,8 hPa 2,0 mm - 45,1 km/h
W (6 Bft)
Durchschnitt _ 2,8 C 92 % 1016,8 hPa #13,2 mm W 4,7 km/h (1 Bft)